createdAt,value
2022-12-19T00:02:12.562Z,92.19
2022-12-19T00:07:15.490Z,92.41
2022-12-19T00:12:19.383Z,92.75
2022-12-19T00:17:23.140Z,92.51
2022-12-19T00:22:26.349Z,92.17
2022-12-19T00:27:29.196Z,92.04
2022-12-19T00:32:32.054Z,92.28
2022-12-19T00:37:35.235Z,92.29
2022-12-19T00:42:40.346Z,92.16
2022-12-19T00:47:43.166Z,91.83
2022-12-19T00:52:46.054Z,91.75
2022-12-19T00:57:49.914Z,91.72
2022-12-19T01:02:55.400Z,91.40
2022-12-19T01:07:58.372Z,91.46
2022-12-19T01:13:01.237Z,91.59
2022-12-19T01:18:04.125Z,91.48
2022-12-19T01:23:08.151Z,91.37
2022-12-19T01:28:14.806Z,91.54
2022-12-19T01:33:20.973Z,91.98
2022-12-19T01:38:23.828Z,91.97
2022-12-19T01:43:30.565Z,92.20
2022-12-19T01:48:40.008Z,92.25
2022-12-19T01:53:49.174Z,92.41
2022-12-19T01:59:05.971Z,92.40
2022-12-19T02:04:10.546Z,92.59
2022-12-19T02:09:13.727Z,92.54
2022-12-19T02:14:16.710Z,92.84
2022-12-19T02:19:19.510Z,93.14
2022-12-19T02:24:36.799Z,93.44
2022-12-19T02:29:49.585Z,93.52
2022-12-19T02:35:13.716Z,93.99
2022-12-19T02:40:24.386Z,93.97
2022-12-19T02:45:33.856Z,94.06
2022-12-19T02:50:39.040Z,94.03
2022-12-19T02:56:14.138Z,94.19
2022-12-19T03:01:29.372Z,94.60
2022-12-19T03:06:45.178Z,95.07
2022-12-19T03:11:56.134Z,95.54
2022-12-19T03:17:04.845Z,95.93
2022-12-19T03:22:08.488Z,96.10
2022-12-19T03:27:39.448Z,95.92
2022-12-19T03:32:46.806Z,95.93
2022-12-19T03:37:52.184Z,95.94
2022-12-19T03:43:09.690Z,96.02
2022-12-19T03:48:43.445Z,96.28
2022-12-19T03:53:56.476Z,96.62
2022-12-19T03:59:09.985Z,96.76
2022-12-19T04:04:14.854Z,96.39
2022-12-19T04:09:22.663Z,96.10
2022-12-19T04:14:31.924Z,95.92
2022-12-19T04:19:48.079Z,95.65
2022-12-19T04:24:54.118Z,95.44
2022-12-19T04:29:59.361Z,95.74
2022-12-19T04:35:03.093Z,95.52
2022-12-19T04:40:08.338Z,95.58
2022-12-19T04:45:11.410Z,95.78
2022-12-19T04:50:14.594Z,96.00
2022-12-19T04:55:17.580Z,96.58
2022-12-19T05:00:20.430Z,96.70
2022-12-19T05:05:23.467Z,96.85
2022-12-19T05:10:26.350Z,96.78
2022-12-19T05:15:29.203Z,96.66
2022-12-19T05:20:32.214Z,96.83
2022-12-19T05:25:36.204Z,96.86
2022-12-19T05:30:39.703Z,96.96
2022-12-19T05:35:42.641Z,96.98
2022-12-19T05:40:45.699Z,97.27
2022-12-19T05:45:48.927Z,97.46
2022-12-19T05:50:51.836Z,97.29
2022-12-19T05:56:04.697Z,97.45
2022-12-19T06:01:20.208Z,97.29
2022-12-19T06:06:26.184Z,97.13
2022-12-19T06:11:29.336Z,97.19
2022-12-19T06:16:32.300Z,97.00
2022-12-19T06:21:35.335Z,96.86
2022-12-19T06:26:38.166Z,96.79
2022-12-19T06:31:41.015Z,96.72
2022-12-19T06:36:43.909Z,96.81
2022-12-19T06:42:05.423Z,96.77
2022-12-19T06:47:08.322Z,96.55
2022-12-19T06:52:11.216Z,96.27
2022-12-19T06:57:14.097Z,96.02
2022-12-19T07:02:30.293Z,95.79
2022-12-19T07:07:33.781Z,95.58
2022-12-19T07:12:37.074Z,95.19
2022-12-19T07:17:40.414Z,94.46
2022-12-19T07:22:43.989Z,92.20
2022-12-19T07:27:47.853Z,90.36
2022-12-19T07:32:50.713Z,88.19
2022-12-19T07:37:53.705Z,84.73
2022-12-19T07:43:00.542Z,81.02
2022-12-19T07:48:04.616Z,79.37
2022-12-19T07:53:07.511Z,76.89
2022-12-19T07:58:13.035Z,72.59
2022-12-19T08:03:15.901Z,67.83
2022-12-19T08:08:18.911Z,62.77
2022-12-19T08:13:21.735Z,59.60
2022-12-19T08:18:26.441Z,58.60
2022-12-19T08:23:29.544Z,58.41
2022-12-19T08:28:33.921Z,57.39
2022-12-19T08:33:37.395Z,58.03
2022-12-19T08:38:40.958Z,57.63
2022-12-19T08:43:49.463Z,56.16
2022-12-19T08:48:52.289Z,54.17
2022-12-19T08:53:55.175Z,52.30
2022-12-19T08:58:58.004Z,51.61
2022-12-19T09:05:07.778Z,51.85
2022-12-19T09:09:23.920Z,52.80
2022-12-19T09:14:26.836Z,52.90
2022-12-19T09:19:29.701Z,52.22
2022-12-19T09:24:33.038Z,50.48
2022-12-19T09:29:36.055Z,48.85
2022-12-19T09:34:39.297Z,47.50
2022-12-19T09:39:42.209Z,46.15
2022-12-19T09:45:06.984Z,44.22
2022-12-19T09:50:33.130Z,42.23
2022-12-19T09:55:40.823Z,40.63
2022-12-19T10:00:47.364Z,39.00
2022-12-19T10:06:49.249Z,36.59
2022-12-19T10:12:39.411Z,34.72
2022-12-19T10:17:35.023Z,33.96
2022-12-19T10:23:04.693Z,34.10
2022-12-19T10:28:39.267Z,34.33
2022-12-19T10:33:58.591Z,34.74
2022-12-19T10:39:15.241Z,33.28
2022-12-19T10:44:19.229Z,32.11
2022-12-19T10:49:28.477Z,31.30
2022-12-19T10:54:37.534Z,29.92
2022-12-19T10:59:40.439Z,30.00
2022-12-19T11:04:46.977Z,30.45
2022-12-19T11:10:16.189Z,30.53
2022-12-19T11:20:16.794Z,30.35
2022-12-19T11:29:30.141Z,31.16
2022-12-19T11:30:48.855Z,32.32
2022-12-19T11:36:52.641Z,32.86
2022-12-19T11:42:11.399Z,32.28
2022-12-19T11:47:33.904Z,33.37
2022-12-19T11:58:04.675Z,34.85
2022-12-19T12:03:41.620Z,34.83
2022-12-19T12:16:09.450Z,34.35
2022-12-19T12:24:23.237Z,34.16
2022-12-19T12:31:05.881Z,36.40
2022-12-19T12:31:20.456Z,37.80
2022-12-19T12:35:30.668Z,39.50
2022-12-19T12:38:19.074Z,42.52
2022-12-19T12:43:31.740Z,45.42
2022-12-19T12:48:43.115Z,46.19
2022-12-19T12:53:48.374Z,49.12
2022-12-19T12:58:54.628Z,53.27
2022-12-19T13:04:12.677Z,55.15
2022-12-19T13:09:28.029Z,56.02
2022-12-19T13:14:39.471Z,57.59
2022-12-19T13:19:57.183Z,59.54
2022-12-19T13:25:01.222Z,62.23
2022-12-19T13:30:15.946Z,64.61
2022-12-19T13:36:49.995Z,66.62
2022-12-19T13:40:44.990Z,68.67
2022-12-19T13:46:03.716Z,70.08
2022-12-19T13:51:08.724Z,71.19
2022-12-19T13:56:17.881Z,72.14
2022-12-19T14:01:28.330Z,72.94
2022-12-19T14:06:42.938Z,73.74
2022-12-19T14:12:26.484Z,74.41
2022-12-19T14:17:13.561Z,74.86
2022-12-19T14:22:25.199Z,75.22
2022-12-19T14:28:21.570Z,75.38
2022-12-19T14:33:44.325Z,75.62
2022-12-19T14:39:24.523Z,75.96
2022-12-19T14:52:35.958Z,76.00
2022-12-19T14:54:10.727Z,76.10
2022-12-19T14:55:58.912Z,76.32
2022-12-19T15:01:10.040Z,76.31
2022-12-19T15:06:32.211Z,76.07
2022-12-19T15:14:50.492Z,76.09
2022-12-19T15:17:49.113Z,76.16
2022-12-19T15:22:51.957Z,75.94
2022-12-19T15:27:55.310Z,76.05
2022-12-19T15:32:58.392Z,76.11
2022-12-19T15:38:01.297Z,76.06
2022-12-19T15:43:04.972Z,75.88
2022-12-19T15:48:13.875Z,75.78
2022-12-19T15:53:39.983Z,75.68
2022-12-19T15:58:43.776Z,75.81
2022-12-19T16:03:47.685Z,75.86
2022-12-19T16:08:50.643Z,75.74
2022-12-19T16:13:56.921Z,75.76
2022-12-19T16:18:59.758Z,75.60
2022-12-19T16:24:02.631Z,75.45
2022-12-19T16:29:06.654Z,75.41
2022-12-19T16:34:17.216Z,75.08
2022-12-19T16:39:20.163Z,74.93
2022-12-19T16:44:23.871Z,74.77
2022-12-19T16:49:28.119Z,74.81
2022-12-19T16:54:31.039Z,74.72
2022-12-19T16:59:40.175Z,74.72
2022-12-19T17:04:46.349Z,74.91
2022-12-19T17:09:51.856Z,74.93
2022-12-19T17:14:54.848Z,74.98
2022-12-19T17:19:57.685Z,75.13
2022-12-19T17:25:00.773Z,75.52
2022-12-19T17:30:03.979Z,75.75
2022-12-19T17:35:07.132Z,75.81
2022-12-19T17:40:31.581Z,76.18
2022-12-19T17:45:35.064Z,76.43
2022-12-19T17:50:40.060Z,76.46
2022-12-19T17:55:43.593Z,76.68
2022-12-19T18:00:47.463Z,76.99
2022-12-19T18:05:53.354Z,77.14
2022-12-19T18:10:59.036Z,77.17
2022-12-19T18:16:03.787Z,77.35
2022-12-19T18:21:06.946Z,77.38
2022-12-19T18:26:12.040Z,77.44
2022-12-19T18:31:18.919Z,77.84
2022-12-19T18:36:24.857Z,78.06
2022-12-19T18:41:27.782Z,78.15
2022-12-19T18:46:32.049Z,78.28
2022-12-19T18:51:34.966Z,78.43
2022-12-19T18:56:37.801Z,78.70
2022-12-19T19:01:46.942Z,78.45
2022-12-19T19:06:52.635Z,78.67
2022-12-19T19:11:55.734Z,78.96
2022-12-19T19:16:58.702Z,79.34
2022-12-19T19:22:01.659Z,79.46
2022-12-19T19:27:04.591Z,79.79
2022-12-19T19:32:07.749Z,79.84
2022-12-19T19:37:13.893Z,80.12
2022-12-19T19:42:18.808Z,79.97
2022-12-19T19:47:28.779Z,79.83
2022-12-19T19:52:31.559Z,79.96
2022-12-19T19:57:34.813Z,79.70
2022-12-19T20:02:37.935Z,79.65
2022-12-19T20:07:41.276Z,79.58
2022-12-19T20:12:44.174Z,79.84
2022-12-19T20:17:47.086Z,80.40
2022-12-19T20:22:50.044Z,80.24
2022-12-19T20:27:52.891Z,80.50
2022-12-19T20:32:55.723Z,80.90
2022-12-19T20:37:58.573Z,80.92
2022-12-19T20:43:02.265Z,81.76
2022-12-19T20:48:05.284Z,82.55
2022-12-19T20:53:08.475Z,83.63
2022-12-19T20:58:11.298Z,84.50
2022-12-19T21:03:28.067Z,85.40
2022-12-19T21:08:32.522Z,86.72
2022-12-19T21:13:36.624Z,87.23
2022-12-19T21:18:41.393Z,87.32
2022-12-19T21:23:45.007Z,88.23
2022-12-19T21:28:47.915Z,88.98
2022-12-19T21:33:54.706Z,89.79
2022-12-19T21:39:00.099Z,90.63
2022-12-19T21:44:03.135Z,91.04
2022-12-19T21:49:08.496Z,91.91
2022-12-19T21:54:11.364Z,94.85
2022-12-19T21:59:16.598Z,97.79
2022-12-19T22:04:22.240Z,99.68
2022-12-19T22:09:25.235Z,99.85
2022-12-19T22:14:28.221Z,100.00
2022-12-19T22:19:31.511Z,100.00
2022-12-19T22:24:34.420Z,100.00
2022-12-19T22:29:37.535Z,100.00
2022-12-19T22:34:40.357Z,100.00
2022-12-19T22:39:43.275Z,100.00
2022-12-19T22:44:46.188Z,100.00
2022-12-19T22:49:52.776Z,100.00
2022-12-19T22:54:55.678Z,100.00
2022-12-19T22:59:58.540Z,100.00
2022-12-19T23:05:01.355Z,100.00
2022-12-19T23:10:04.596Z,100.00
2022-12-19T23:15:07.766Z,100.00
2022-12-19T23:20:11.451Z,100.00
2022-12-19T23:25:14.294Z,100.00
2022-12-19T23:30:17.181Z,100.00
2022-12-19T23:35:20.037Z,100.00
2022-12-19T23:40:22.924Z,100.00
2022-12-19T23:45:25.790Z,100.00
2022-12-19T23:50:28.769Z,100.00
2022-12-19T23:55:31.581Z,100.00
